Time;durP1;ratioP1;P1;durP2;ratioP2;P2;SDS_P1;SDS_P2;PMS_P1;PMS_P2;Temp;Humidity;BMP_temperature;BMP_pressure;BME280_temperature;BME280_humidity;BME280_pressure;Samples;Min_cycle;Max_cycle;Signal;HPM_P1;HPM_P2
2021/11/16 00:02:21;;;;;;;62.05;26.98;;;;;;;;;;5046139;28;20049;-71
2021/11/16 00:04:47;;;;;;;58.53;26.92;;;;;;;;;;5034586;28;20119;-69
2021/11/16 00:07:12;;;;;;;57.42;26.30;;;;;;;;;;5043477;28;20112;-68
2021/11/16 00:09:38;;;;;;;55.78;25.13;;;;;;;;;;5043295;28;20123;-68
2021/11/16 00:12:03;;;;;;;52.05;25.17;;;;;;;;;;5042301;28;20063;-68
2021/11/16 00:14:30;;;;;;;50.15;23.45;;;;;;;;;;5042386;28;20029;-67
2021/11/16 00:16:56;;;;;;;55.13;25.17;;;;;;;;;;5040403;28;20058;-67
2021/11/16 00:19:21;;;;;;;54.90;25.05;;;;;;;;;;5035387;28;20715;-68
2021/11/16 00:21:48;;;;;;;51.83;24.45;;;;;;;;;;5040679;28;20079;-68
2021/11/16 00:24:25;;;;;;;48.80;23.90;;;;;;;;;;5043081;28;20029;-68
2021/11/16 00:26:50;;;;;;;50.10;24.02;;;;;;;;;;5043757;28;20460;-69
2021/11/16 00:29:16;;;;;;;45.97;22.85;;;;;;;;;;5037610;28;20032;-68
2021/11/16 00:31:41;;;;;;;49.53;23.65;;;;;;;;;;5045300;28;20025;-69
2021/11/16 00:34:06;;;;;;;50.25;24.42;;;;;;;;;;5043923;28;20116;-68
2021/11/16 00:36:32;;;;;;;53.28;24.73;;;;;;;;;;5045633;28;20490;-69
2021/11/16 00:38:58;;;;;;;51.13;23.38;;;;;;;;;;5039158;28;20045;-68
2021/11/16 00:41:23;;;;;;;50.88;24.45;;;;;;;;;;5045424;28;20066;-69
2021/11/16 00:43:49;;;;;;;51.80;24.80;;;;;;;;;;5043525;28;20063;-69
2021/11/16 00:46:15;;;;;;;53.30;24.23;;;;;;;;;;5046651;28;20522;-69
2021/11/16 00:48:40;;;;;;;57.63;26.98;;;;;;;;;;5041320;28;20032;-68
2021/11/16 00:51:06;;;;;;;62.05;27.38;;;;;;;;;;5050023;28;20033;-69
2021/11/16 00:53:33;;;;;;;69.28;29.02;;;;;;;;;;5048254;28;20036;-69
2021/11/16 00:55:59;;;;;;;70.03;30.20;;;;;;;;;;5046318;28;20056;-68
2021/11/16 00:58:25;;;;;;;69.60;29.58;;;;;;;;;;5043067;28;20029;-68
2021/11/16 01:00:50;;;;;;;73.50;29.05;;;;;;;;;;5047300;28;20049;-69
2021/11/16 01:03:16;;;;;;;66.78;28.95;;;;;;;;;;5041690;28;20096;-68
2021/11/16 01:05:41;;;;;;;66.47;28.85;;;;;;;;;;5038023;28;20025;-68
2021/11/16 01:08:07;;;;;;;64.22;27.80;;;;;;;;;;5045193;28;20028;-69
2021/11/16 01:10:33;;;;;;;71.55;29.83;;;;;;;;;;5046293;28;20100;-69
2021/11/16 01:12:58;;;;;;;67.47;29.90;;;;;;;;;;5043494;28;20429;-68
2021/11/16 01:15:24;;;;;;;62.53;28.70;;;;;;;;;;5045191;28;20025;-69
2021/11/16 01:17:49;;;;;;;64.60;28.73;;;;;;;;;;5042311;28;20025;-67
2021/11/16 01:20:15;;;;;;;70.43;28.98;;;;;;;;;;5041395;28;20393;-69
2021/11/16 01:22:41;;;;;;;72.88;31.52;;;;;;;;;;5046399;28;20411;-68
2021/11/16 01:25:07;;;;;;;70.00;28.92;;;;;;;;;;5041054;28;20129;-68
2021/11/16 01:27:35;;;;;;;72.22;28.38;;;;;;;;;;5048627;28;20061;-68
2021/11/16 01:30:01;;;;;;;68.90;29.38;;;;;;;;;;5045320;28;20666;-68
2021/11/16 01:34:52;;;;;;;67.60;29.77;;;;;;;;;;5042489;28;20392;-68
2021/11/16 01:37:17;;;;;;;74.82;28.88;;;;;;;;;;5047154;28;20022;-67
2021/11/16 01:39:43;;;;;;;72.15;30.00;;;;;;;;;;5042588;28;20071;-69
2021/11/16 01:42:08;;;;;;;68.10;28.70;;;;;;;;;;5046771;28;20036;-68
2021/11/16 01:44:33;;;;;;;68.65;27.90;;;;;;;;;;5046425;28;20017;-69
2021/11/16 01:46:58;;;;;;;59.03;27.33;;;;;;;;;;5047577;28;20040;-69
2021/11/16 01:49:24;;;;;;;67.18;29.20;;;;;;;;;;5046868;28;20039;-68
2021/11/16 01:51:49;;;;;;;66.30;27.60;;;;;;;;;;5045836;28;20032;-68
2021/11/16 01:54:14;;;;;;;71.15;29.05;;;;;;;;;;5042600;28;20132;-68
2021/11/16 01:56:42;;;;;;;63.30;27.70;;;;;;;;;;5047301;28;20092;-68
2021/11/16 01:59:08;;;;;;;66.70;28.20;;;;;;;;;;5047379;28;20065;-68
2021/11/16 02:01:34;;;;;;;68.63;28.15;;;;;;;;;;5046732;28;20094;-68
2021/11/16 02:04:00;;;;;;;69.32;27.05;;;;;;;;;;5039711;28;20399;-69
2021/11/16 02:06:26;;;;;;;68.60;27.17;;;;;;;;;;5048660;28;20025;-68
2021/11/16 02:08:53;;;;;;;65.95;25.77;;;;;;;;;;5042173;28;20036;-67
2021/11/16 02:11:18;;;;;;;62.88;26.00;;;;;;;;;;5043014;28;20033;-69
2021/11/16 02:13:44;;;;;;;71.78;27.42;;;;;;;;;;5041262;28;20025;-69
2021/11/16 02:16:09;;;;;;;63.28;26.90;;;;;;;;;;5043307;28;20063;-69
2021/11/16 02:18:36;;;;;;;63.30;26.15;;;;;;;;;;5047977;28;20052;-69
2021/11/16 02:21:01;;;;;;;72.40;30.00;;;;;;;;;;5043881;28;20032;-69
2021/11/16 02:23:27;;;;;;;63.03;25.27;;;;;;;;;;5037381;28;20393;-69
2021/11/16 02:25:52;;;;;;;67.53;27.55;;;;;;;;;;5045594;28;20087;-68
2021/11/16 02:28:18;;;;;;;69.93;29.48;;;;;;;;;;5045706;28;20094;-68
2021/11/16 02:30:44;;;;;;;71.50;27.45;;;;;;;;;;5049221;28;20029;-69
2021/11/16 02:33:09;;;;;;;74.70;28.75;;;;;;;;;;5047304;28;20443;-68
2021/11/16 02:35:35;;;;;;;80.63;29.85;;;;;;;;;;5037449;28;20048;-69
2021/11/16 02:38:00;;;;;;;65.78;26.85;;;;;;;;;;5041800;28;20626;-67
2021/11/16 02:40:26;;;;;;;69.07;27.25;;;;;;;;;;5047972;28;20090;-69
2021/11/16 02:42:51;;;;;;;65.60;26.77;;;;;;;;;;5039826;28;20078;-69
2021/11/16 02:45:17;;;;;;;63.65;24.80;;;;;;;;;;5045376;28;20033;-70
2021/11/16 02:47:43;;;;;;;67.57;27.77;;;;;;;;;;5044147;28;20040;-69
2021/11/16 02:50:09;;;;;;;69.68;28.80;;;;;;;;;;5046862;28;20066;-69
2021/11/16 02:52:35;;;;;;;66.30;25.75;;;;;;;;;;5045901;28;20472;-69
2021/11/16 02:55:00;;;;;;;70.65;27.10;;;;;;;;;;5043026;28;20028;-69
2021/11/16 02:57:26;;;;;;;66.72;27.30;;;;;;;;;;5047541;28;20098;-69
2021/11/16 02:59:51;;;;;;;63.05;25.65;;;;;;;;;;5047075;28;20076;-70
2021/11/16 03:02:17;;;;;;;65.72;25.52;;;;;;;;;;5044398;28;20025;-69
2021/11/16 03:04:46;;;;;;;56.78;24.67;;;;;;;;;;5047074;28;20400;-70
2021/11/16 03:07:12;;;;;;;60.60;23.63;;;;;;;;;;5044007;28;20472;-69
2021/11/16 03:09:37;;;;;;;56.15;22.92;;;;;;;;;;5043144;28;20025;-69
2021/11/16 03:12:03;;;;;;;53.80;22.20;;;;;;;;;;5043494;28;20040;-69
2021/11/16 03:14:29;;;;;;;55.08;23.42;;;;;;;;;;5046581;28;20468;-69
2021/11/16 03:16:55;;;;;;;62.13;23.52;;;;;;;;;;5046757;28;20032;-68
2021/11/16 03:19:20;;;;;;;55.78;20.65;;;;;;;;;;5043881;28;20169;-70
2021/11/16 03:21:55;;;;;;;49.45;21.10;;;;;;;;;;5046941;28;20086;-69
2021/11/16 03:24:22;;;;;;;56.67;22.08;;;;;;;;;;5041387;28;20170;-69
2021/11/16 03:26:48;;;;;;;58.50;22.70;;;;;;;;;;5046865;28;20070;-69
2021/11/16 03:29:14;;;;;;;61.22;23.25;;;;;;;;;;5039754;28;20104;-69
2021/11/16 03:31:48;;;;;;;58.72;22.83;;;;;;;;;;5051031;28;20029;-69
2021/11/16 03:34:13;;;;;;;55.53;22.67;;;;;;;;;;5038171;28;20330;-70
2021/11/16 03:36:39;;;;;;;55.90;21.63;;;;;;;;;;5045234;28;20032;-68
2021/11/16 03:39:04;;;;;;;51.60;23.25;;;;;;;;;;5044127;28;20102;-70
2021/11/16 03:41:30;;;;;;;54.72;21.88;;;;;;;;;;5047038;28;20500;-69
2021/11/16 03:43:55;;;;;;;52.40;22.30;;;;;;;;;;5041788;28;20032;-69
2021/11/16 03:46:21;;;;;;;49.80;22.35;;;;;;;;;;5045954;28;20460;-68
2021/11/16 03:48:46;;;;;;;58.05;21.80;;;;;;;;;;5036486;28;20122;-69
2021/11/16 03:51:11;;;;;;;57.05;22.98;;;;;;;;;;5039350;28;20016;-69
2021/11/16 03:53:38;;;;;;;56.75;22.65;;;;;;;;;;5046738;28;20593;-69
2021/11/16 03:56:04;;;;;;;61.40;24.10;;;;;;;;;;5043892;28;20096;-68
2021/11/16 03:58:29;;;;;;;57.88;22.30;;;;;;;;;;5043784;28;20388;-68
2021/11/16 04:00:59;;;;;;;60.40;22.33;;;;;;;;;;5044129;28;20047;-68
2021/11/16 04:03:25;;;;;;;55.33;22.02;;;;;;;;;;5043654;28;20108;-69
2021/11/16 04:05:51;;;;;;;61.10;22.30;;;;;;;;;;5043036;28;20025;-67
2021/11/16 04:08:16;;;;;;;62.53;24.27;;;;;;;;;;5043280;28;20025;-68
2021/11/16 04:10:42;;;;;;;53.40;21.70;;;;;;;;;;5041587;28;20093;-68
2021/11/16 04:13:08;;;;;;;54.30;22.77;;;;;;;;;;5044932;28;20037;-68
2021/11/16 04:15:34;;;;;;;55.15;22.17;;;;;;;;;;5035690;28;20083;-70
2021/11/16 04:18:01;;;;;;;61.20;25.83;;;;;;;;;;5038340;28;20103;-68
2021/11/16 04:20:29;;;;;;;63.00;23.95;;;;;;;;;;5043459;28;20036;-68
2021/11/16 04:22:56;;;;;;;59.22;22.98;;;;;;;;;;5045756;28;20021;-68
2021/11/16 04:25:21;;;;;;;64.60;24.38;;;;;;;;;;5046644;28;20127;-68
2021/11/16 04:27:46;;;;;;;63.42;23.38;;;;;;;;;;5043817;28;20169;-68
2021/11/16 04:30:13;;;;;;;63.17;23.52;;;;;;;;;;5055002;28;20083;-69
2021/11/16 04:32:38;;;;;;;58.58;22.70;;;;;;;;;;5050479;28;20110;-68
2021/11/16 04:35:04;;;;;;;56.85;22.95;;;;;;;;;;5044688;28;20033;-68
2021/11/16 04:37:30;;;;;;;58.47;22.20;;;;;;;;;;5043381;28;20017;-69
2021/11/16 04:39:55;;;;;;;65.30;25.10;;;;;;;;;;5047188;28;20059;-69
2021/11/16 04:42:22;;;;;;;62.13;23.25;;;;;;;;;;5048527;28;20434;-68
2021/11/16 04:44:47;;;;;;;63.75;23.60;;;;;;;;;;5046671;28;20075;-69
2021/11/16 04:47:18;;;;;;;57.92;22.70;;;;;;;;;;5043219;28;20464;-67
2021/11/16 04:49:47;;;;;;;63.17;24.25;;;;;;;;;;5045777;28;20036;-68
2021/11/16 04:54:59;;;;;;;57.45;22.23;;;;;;;;;;5047565;28;20021;-68
2021/11/16 05:02:40;;;;;;;58.97;23.52;;;;;;;;;;5047230;28;20116;-68
2021/11/16 05:05:09;;;;;;;54.05;22.33;;;;;;;;;;5050630;28;20017;-68
2021/11/16 05:07:35;;;;;;;54.88;21.80;;;;;;;;;;5046658;28;20032;-69
2021/11/16 05:10:00;;;;;;;53.42;21.42;;;;;;;;;;5048168;28;20392;-69
2021/11/16 05:12:27;;;;;;;50.40;21.50;;;;;;;;;;5047739;28;20029;-69
2021/11/16 05:14:53;;;;;;;55.45;22.38;;;;;;;;;;5049901;28;20065;-68
2021/11/16 05:17:18;;;;;;;50.30;19.58;;;;;;;;;;5043752;28;20028;-69
2021/11/16 05:19:43;;;;;;;48.20;20.95;;;;;;;;;;5046836;28;20044;-69
2021/11/16 05:22:08;;;;;;;49.25;20.85;;;;;;;;;;5046220;28;20025;-68
2021/11/16 05:24:34;;;;;;;48.95;20.75;;;;;;;;;;5046438;28;20033;-69
2021/11/16 05:26:59;;;;;;;44.80;19.02;;;;;;;;;;5047260;28;20131;-69
2021/11/16 05:29:24;;;;;;;55.10;19.83;;;;;;;;;;5042782;28;20033;-69
2021/11/16 05:31:49;;;;;;;48.42;20.25;;;;;;;;;;5051379;28;20495;-69
2021/11/16 05:34:15;;;;;;;50.15;20.75;;;;;;;;;;5046955;28;20491;-69
2021/11/16 05:36:40;;;;;;;40.53;17.27;;;;;;;;;;5048769;28;20060;-69
2021/11/16 05:39:06;;;;;;;49.40;19.42;;;;;;;;;;5046665;28;20033;-69
2021/11/16 05:41:31;;;;;;;40.47;17.70;;;;;;;;;;5046541;28;20108;-70
2021/11/16 05:43:57;;;;;;;42.67;17.20;;;;;;;;;;5042967;28;20030;-69
2021/11/16 05:46:23;;;;;;;44.72;18.13;;;;;;;;;;5047056;28;20114;-64
2021/11/16 05:48:49;;;;;;;41.70;17.98;;;;;;;;;;5040127;28;20033;-64
2021/11/16 05:51:15;;;;;;;41.15;16.25;;;;;;;;;;5041624;28;20384;-63
2021/11/16 05:53:44;;;;;;;42.38;18.15;;;;;;;;;;5041725;28;20025;-63
2021/11/16 05:56:09;;;;;;;38.85;15.93;;;;;;;;;;5045304;28;20038;-63
2021/11/16 05:58:34;;;;;;;38.25;16.20;;;;;;;;;;5049114;28;20033;-64
2021/11/16 06:01:00;;;;;;;38.05;16.38;;;;;;;;;;5050809;28;20068;-63
2021/11/16 06:03:25;;;;;;;40.47;16.63;;;;;;;;;;5042411;28;20094;-63
2021/11/16 06:05:50;;;;;;;36.28;16.52;;;;;;;;;;5048264;28;20396;-62
2021/11/16 06:08:20;;;;;;;35.15;15.63;;;;;;;;;;5048965;28;20096;-64
2021/11/16 06:10:46;;;;;;;32.78;14.95;;;;;;;;;;5047944;28;20086;-63
2021/11/16 06:13:11;;;;;;;35.85;15.60;;;;;;;;;;5046258;28;20472;-64
2021/11/16 06:15:36;;;;;;;38.58;15.02;;;;;;;;;;5044907;28;20500;-63
2021/11/16 06:18:02;;;;;;;33.47;14.68;;;;;;;;;;5046353;28;20037;-63
2021/11/16 06:20:29;;;;;;;30.67;14.02;;;;;;;;;;5042301;28;20052;-63
2021/11/16 06:22:55;;;;;;;25.08;11.55;;;;;;;;;;5045878;28;20044;-64
2021/11/16 06:25:20;;;;;;;26.15;12.50;;;;;;;;;;5044031;28;20032;-63
2021/11/16 06:27:45;;;;;;;27.92;13.65;;;;;;;;;;5042943;28;20029;-64
2021/11/16 06:30:11;;;;;;;29.23;14.20;;;;;;;;;;5048121;28;20031;-65
2021/11/16 06:32:36;;;;;;;28.88;13.23;;;;;;;;;;5042040;28;20379;-64
2021/11/16 06:35:01;;;;;;;29.17;13.65;;;;;;;;;;5046603;28;20038;-63
2021/11/16 06:37:27;;;;;;;25.20;12.32;;;;;;;;;;5045577;28;20036;-64
2021/11/16 06:39:52;;;;;;;30.20;13.60;;;;;;;;;;5044708;28;20096;-62
2021/11/16 06:42:17;;;;;;;28.60;13.52;;;;;;;;;;5043076;28;20025;-63
2021/11/16 06:44:43;;;;;;;30.77;13.55;;;;;;;;;;5039099;28;20029;-63
2021/11/16 06:47:13;;;;;;;27.42;12.20;;;;;;;;;;5048662;28;20052;-63
2021/11/16 06:49:40;;;;;;;29.25;13.05;;;;;;;;;;5043685;28;20432;-64
2021/11/16 06:52:05;;;;;;;25.23;12.07;;;;;;;;;;5042614;28;20049;-63
2021/11/16 06:54:30;;;;;;;23.02;12.05;;;;;;;;;;5038339;28;20052;-65
2021/11/16 06:56:57;;;;;;;25.25;12.23;;;;;;;;;;5041854;28;20444;-62
2021/11/16 06:59:24;;;;;;;24.60;12.60;;;;;;;;;;5048891;28;20096;-63
2021/11/16 07:01:50;;;;;;;25.17;12.23;;;;;;;;;;5040217;28;20032;-63
2021/11/16 07:04:15;;;;;;;23.33;11.45;;;;;;;;;;5037459;28;20052;-64
2021/11/16 07:06:42;;;;;;;23.05;11.07;;;;;;;;;;5039463;28;20071;-64
2021/11/16 07:09:08;;;;;;;26.13;12.80;;;;;;;;;;5043467;28;20127;-62
2021/11/16 07:11:41;;;;;;;24.63;11.98;;;;;;;;;;5044543;28;20025;-63
2021/11/16 07:14:08;;;;;;;22.52;10.98;;;;;;;;;;5047875;28;20025;-64
2021/11/16 07:16:41;;;;;;;22.58;11.02;;;;;;;;;;5045379;28;20037;-64
2021/11/16 07:19:10;;;;;;;22.83;11.13;;;;;;;;;;5047763;28;20032;-63
2021/11/16 07:21:43;;;;;;;22.15;11.57;;;;;;;;;;5038319;28;20017;-65
2021/11/16 07:24:13;;;;;;;23.70;11.05;;;;;;;;;;5038098;28;20059;-63
2021/11/16 07:26:40;;;;;;;21.17;11.23;;;;;;;;;;5046910;28;20021;-63
2021/11/16 07:29:08;;;;;;;21.95;11.07;;;;;;;;;;5046685;28;20120;-64
2021/11/16 07:31:36;;;;;;;21.27;10.32;;;;;;;;;;5048231;28;20017;-65
2021/11/16 07:34:07;;;;;;;20.83;9.95;;;;;;;;;;5047460;28;20087;-64
2021/11/16 07:36:33;;;;;;;20.98;10.57;;;;;;;;;;5048449;28;20021;-63
2021/11/16 07:39:03;;;;;;;19.48;10.02;;;;;;;;;;5047942;28;20037;-63
2021/11/16 07:41:28;;;;;;;21.30;10.27;;;;;;;;;;5048477;28;20027;-63
2021/11/16 07:43:53;;;;;;;22.75;11.38;;;;;;;;;;5048104;28;20108;-65
2021/11/16 07:46:18;;;;;;;20.05;10.35;;;;;;;;;;5044584;28;20055;-63
2021/11/16 07:48:44;;;;;;;18.73;10.18;;;;;;;;;;5041746;28;20431;-63
2021/11/16 07:51:12;;;;;;;21.50;10.55;;;;;;;;;;5034096;28;20052;-63
2021/11/16 07:53:41;;;;;;;20.75;10.60;;;;;;;;;;5043174;28;20021;-64
2021/11/16 07:56:09;;;;;;;;;;;;;;;;;;5042710;28;20025;-64
2021/11/16 07:58:37;;;;;;;18.65;8.77;;;;;;;;;;5040960;28;20280;-64
2021/11/16 08:01:14;;;;;;;21.73;10.57;;;;;;;;;;5047815;28;20041;-64
2021/11/16 08:04:05;;;;;;;19.40;9.63;;;;;;;;;;5043171;28;20060;-64
2021/11/16 08:06:37;;;;;;;21.33;10.63;;;;;;;;;;5039256;28;20428;-64
2021/11/16 08:09:22;;;;;;;20.73;9.70;;;;;;;;;;5042748;28;20051;-64
2021/11/16 08:11:53;;;;;;;18.85;9.52;;;;;;;;;;5043090;28;20029;-63
2021/11/16 08:14:18;;;;;;;18.52;9.05;;;;;;;;;;5043310;28;20129;-64
2021/11/16 08:16:54;;;;;;;18.40;9.45;;;;;;;;;;5041348;28;20167;-63
2021/11/16 08:19:24;;;;;;;16.52;9.00;;;;;;;;;;5042904;28;20133;-63
2021/11/16 08:21:55;;;;;;;22.30;9.90;;;;;;;;;;5047535;28;20029;-64
2021/11/16 08:24:21;;;;;;;19.25;10.00;;;;;;;;;;5048084;28;20029;-63
2021/11/16 08:26:47;;;;;;;20.70;9.57;;;;;;;;;;5043514;28;20081;-62
2021/11/16 08:29:14;;;;;;;20.85;9.40;;;;;;;;;;5048230;28;20431;-64
2021/11/16 08:31:44;;;;;;;18.85;9.75;;;;;;;;;;5048216;28;20021;-64
2021/11/16 08:34:10;;;;;;;18.95;9.60;;;;;;;;;;5047949;28;20028;-63
2021/11/16 08:36:43;;;;;;;17.27;8.20;;;;;;;;;;5045964;28;20029;-63
2021/11/16 08:39:09;;;;;;;20.70;9.90;;;;;;;;;;5044912;28;20041;-63
2021/11/16 08:41:34;;;;;;;19.05;10.00;;;;;;;;;;5047987;28;20028;-63
2021/11/16 08:44:10;;;;;;;20.48;10.15;;;;;;;;;;5047992;28;20033;-63
2021/11/16 08:46:36;;;;;;;19.98;10.15;;;;;;;;;;5047795;28;20380;-63
2021/11/16 08:49:01;;;;;;;19.17;9.82;;;;;;;;;;5045799;28;20033;-63
2021/11/16 08:51:30;;;;;;;21.92;10.40;;;;;;;;;;5047720;28;20033;-63
2021/11/16 08:53:56;;;;;;;19.02;9.30;;;;;;;;;;5047881;28;20025;-64
2021/11/16 08:56:26;;;;;;;22.05;10.15;;;;;;;;;;5047852;28;20104;-64
2021/11/16 08:58:52;;;;;;;17.52;9.23;;;;;;;;;;5045218;28;20032;-63
2021/11/16 09:01:17;;;;;;;19.33;10.02;;;;;;;;;;5052865;28;20021;-63
2021/11/16 09:03:44;;;;;;;20.60;10.10;;;;;;;;;;5047459;28;20097;-65
2021/11/16 09:06:20;;;;;;;20.15;10.23;;;;;;;;;;5047990;28;20025;-63
2021/11/16 09:08:58;;;;;;;22.50;10.70;;;;;;;;;;5045785;28;20038;-64
2021/11/16 09:11:24;;;;;;;21.48;10.15;;;;;;;;;;5041310;28;20037;-63
2021/11/16 09:13:49;;;;;;;20.40;10.60;;;;;;;;;;5051235;28;20024;-64
2021/11/16 09:16:17;;;;;;;20.00;9.77;;;;;;;;;;5050943;28;20549;-63
2021/11/16 09:18:46;;;;;;;22.23;9.88;;;;;;;;;;5049550;28;20105;-64
2021/11/16 09:21:16;;;;;;;21.83;10.50;;;;;;;;;;5048428;28;20164;-64
2021/11/16 09:23:46;;;;;;;21.48;10.63;;;;;;;;;;5047709;28;20029;-64
2021/11/16 09:26:39;;;;;;;17.98;9.57;;;;;;;;;;5051105;28;20078;-64
2021/11/16 09:29:05;;;;;;;20.23;10.02;;;;;;;;;;5047445;28;20500;-63
2021/11/16 09:31:31;;;;;;;20.23;10.32;;;;;;;;;;5043144;28;20082;-64
2021/11/16 09:33:58;;;;;;;22.15;9.38;;;;;;;;;;5044576;28;20033;-64
2021/11/16 09:36:29;;;;;;;18.80;9.40;;;;;;;;;;5050555;28;20028;-64
2021/11/16 09:38:57;;;;;;;19.75;9.90;;;;;;;;;;5050431;28;20036;-63
2021/11/16 09:41:30;;;;;;;20.40;9.57;;;;;;;;;;5050050;28;20021;-63
2021/11/16 09:43:59;;;;;;;20.08;9.60;;;;;;;;;;5047333;28;20038;-64
2021/11/16 09:46:24;;;;;;;19.50;9.43;;;;;;;;;;5044256;28;20016;-64
2021/11/16 09:48:56;;;;;;;17.48;8.93;;;;;;;;;;5050428;28;20464;-64
2021/11/16 09:51:22;;;;;;;20.23;10.20;;;;;;;;;;5047815;28;20590;-63
2021/11/16 09:53:58;;;;;;;20.25;10.50;;;;;;;;;;5044502;28;20048;-63
2021/11/16 09:56:24;;;;;;;21.33;10.63;;;;;;;;;;5044725;28;20051;-64
2021/11/16 09:58:50;;;;;;;18.35;9.52;;;;;;;;;;5048466;28;20036;-64
2021/11/16 10:01:23;;;;;;;22.55;10.77;;;;;;;;;;5047320;28;20483;-63
2021/11/16 10:03:51;;;;;;;20.23;10.70;;;;;;;;;;5047692;28;20351;-64
2021/11/16 10:06:17;;;;;;;22.50;11.05;;;;;;;;;;5049018;28;20113;-63
2021/11/16 10:08:42;;;;;;;18.30;9.82;;;;;;;;;;5049697;28;20064;-63
2021/11/16 10:11:08;;;;;;;20.10;9.20;;;;;;;;;;5049606;28;20035;-63
2021/11/16 10:13:33;;;;;;;16.27;8.43;;;;;;;;;;5049054;28;20053;-63
2021/11/16 10:15:59;;;;;;;16.48;8.43;;;;;;;;;;5049484;28;20052;-63
2021/11/16 10:18:25;;;;;;;14.80;7.75;;;;;;;;;;5049511;28;20031;-63
2021/11/16 10:20:51;;;;;;;15.52;8.23;;;;;;;;;;5049575;28;20536;-62
2021/11/16 10:23:30;;;;;;;15.48;7.88;;;;;;;;;;5049333;28;20119;-62
2021/11/16 10:25:56;;;;;;;14.80;7.57;;;;;;;;;;5049150;28;20024;-63
2021/11/16 10:28:22;;;;;;;15.73;8.30;;;;;;;;;;5047899;28;20033;-64
2021/11/16 10:30:47;;;;;;;16.23;8.45;;;;;;;;;;5054148;28;20028;-62
2021/11/16 10:33:14;;;;;;;15.98;7.78;;;;;;;;;;5047331;28;20033;-63
2021/11/16 10:35:47;;;;;;;15.10;8.40;;;;;;;;;;5049140;28;20040;-63
2021/11/16 10:38:14;;;;;;;15.98;8.95;;;;;;;;;;5048067;28;20515;-63
2021/11/16 10:40:40;;;;;;;17.55;8.30;;;;;;;;;;5048643;28;20486;-62
2021/11/16 10:43:06;;;;;;;16.15;8.25;;;;;;;;;;5048932;28;20152;-62
2021/11/16 10:45:33;;;;;;;17.73;9.10;;;;;;;;;;5042213;28;20050;-63
2021/11/16 10:48:00;;;;;;;19.67;9.35;;;;;;;;;;5048106;28;20423;-63
2021/11/16 10:50:28;;;;;;;18.65;9.13;;;;;;;;;;5044433;28;20033;-62
2021/11/16 10:53:18;;;;;;;19.88;10.40;;;;;;;;;;5048862;28;20602;-64
2021/11/16 10:55:43;;;;;;;19.63;10.27;;;;;;;;;;5043317;28;20070;-61
2021/11/16 10:58:09;;;;;;;17.30;9.35;;;;;;;;;;5044602;28;20057;-63
2021/11/16 11:00:37;;;;;;;19.58;9.77;;;;;;;;;;5044957;28;20045;-62
2021/11/16 11:03:11;;;;;;;17.95;9.48;;;;;;;;;;5044671;28;20031;-64
2021/11/16 11:05:36;;;;;;;16.80;9.25;;;;;;;;;;5035796;28;20036;-63
2021/11/16 11:08:01;;;;;;;18.20;9.27;;;;;;;;;;5027024;28;20108;-63
2021/11/16 11:10:39;;;;;;;19.50;10.02;;;;;;;;;;5037588;28;20838;-62
2021/11/16 11:13:15;;;;;;;21.35;10.65;;;;;;;;;;5045577;28;20170;-63
2021/11/16 11:15:41;;;;;;;19.58;9.60;;;;;;;;;;5037698;28;20028;-61
2021/11/16 11:18:07;;;;;;;19.38;10.35;;;;;;;;;;5032150;28;20473;-62
2021/11/16 11:20:45;;;;;;;19.55;10.20;;;;;;;;;;5026403;28;20041;-63
2021/11/16 11:23:29;;;;;;;18.63;9.35;;;;;;;;;;5040983;28;20028;-62
2021/11/16 11:26:14;;;;;;;18.73;9.35;;;;;;;;;;5045044;28;20025;-62
2021/11/16 11:28:41;;;;;;;20.77;9.57;;;;;;;;;;5045388;28;20111;-62
2021/11/16 11:31:26;;;;;;;22.33;10.98;;;;;;;;;;5016992;28;20039;-64
2021/11/16 11:33:51;;;;;;;18.77;9.15;;;;;;;;;;5041899;28;20033;-61
2021/11/16 11:36:21;;;;;;;20.92;9.23;;;;;;;;;;5046092;28;20025;-62
2021/11/16 11:38:46;;;;;;;21.30;9.88;;;;;;;;;;5042015;28;20037;-64
2021/11/16 11:41:12;;;;;;;19.50;9.32;;;;;;;;;;5048530;28;20476;-63
2021/11/16 11:43:38;;;;;;;17.27;8.77;;;;;;;;;;5048142;28;20020;-63
2021/11/16 11:46:03;;;;;;;18.50;9.40;;;;;;;;;;5048231;28;20075;-63
2021/11/16 11:48:28;;;;;;;21.88;10.43;;;;;;;;;;5033725;28;20037;-63
2021/11/16 11:51:01;;;;;;;20.20;10.20;;;;;;;;;;5046907;28;20024;-63
2021/11/16 11:53:29;;;;;;;19.85;9.32;;;;;;;;;;5047794;28;20078;-64
2021/11/16 11:56:02;;;;;;;21.38;10.48;;;;;;;;;;5047929;28;20469;-62
2021/11/16 11:58:28;;;;;;;22.00;11.10;;;;;;;;;;5044611;28;20037;-63
2021/11/16 12:00:55;;;;;;;24.35;10.77;;;;;;;;;;5052213;28;20515;-63
2021/11/16 12:03:21;;;;;;;22.25;10.90;;;;;;;;;;5044558;28;20658;-63
2021/11/16 12:05:46;;;;;;;21.38;11.02;;;;;;;;;;5047432;28;20035;-63
2021/11/16 12:08:13;;;;;;;24.40;10.32;;;;;;;;;;5045561;28;20024;-62
2021/11/16 12:10:39;;;;;;;21.05;10.00;;;;;;;;;;5046386;28;20021;-63
2021/11/16 12:13:05;;;;;;;23.15;11.07;;;;;;;;;;5047497;28;20021;-64
2021/11/16 12:15:36;;;;;;;23.23;10.50;;;;;;;;;;5047403;28;20025;-63
2021/11/16 12:18:02;;;;;;;22.63;10.40;;;;;;;;;;5046814;28;20045;-64
2021/11/16 12:20:55;;;;;;;21.88;10.30;;;;;;;;;;5043856;28;20032;-63
2021/11/16 12:23:39;;;;;;;21.48;10.02;;;;;;;;;;5034464;28;20021;-63
2021/11/16 12:26:08;;;;;;;20.13;10.13;;;;;;;;;;5037932;28;20124;-63
2021/11/16 12:28:33;;;;;;;24.45;11.20;;;;;;;;;;5047411;28;20025;-63
2021/11/16 12:31:00;;;;;;;22.80;10.55;;;;;;;;;;5046966;28;20530;-63
2021/11/16 12:33:45;;;;;;;24.77;11.25;;;;;;;;;;5046877;28;20043;-64
2021/11/16 12:36:11;;;;;;;21.23;10.43;;;;;;;;;;5047356;28;20052;-63
2021/11/16 12:38:41;;;;;;;21.88;10.52;;;;;;;;;;5046656;28;20198;-63
2021/11/16 12:41:27;;;;;;;21.35;10.65;;;;;;;;;;5042598;28;20138;-64
2021/11/16 12:43:52;;;;;;;21.15;9.75;;;;;;;;;;5050162;28;20561;-63
2021/11/16 12:46:18;;;;;;;21.55;11.13;;;;;;;;;;5049572;28;20100;-64
2021/11/16 12:48:49;;;;;;;23.05;11.18;;;;;;;;;;5049474;28;20477;-64
2021/11/16 12:51:16;;;;;;;23.90;11.20;;;;;;;;;;5049642;28;20548;-64
2021/11/16 12:53:53;;;;;;;21.77;11.23;;;;;;;;;;5051039;28;20027;-64
2021/11/16 12:56:19;;;;;;;21.58;11.02;;;;;;;;;;5051182;28;20025;-64
2021/11/16 12:58:52;;;;;;;28.25;12.88;;;;;;;;;;5050492;28;20140;-64
2021/11/16 13:01:34;;;;;;;26.13;12.02;;;;;;;;;;5050716;28;20239;-64
2021/11/16 13:04:02;;;;;;;25.20;11.52;;;;;;;;;;5050512;28;20124;-63
2021/11/16 13:06:27;;;;;;;24.58;11.32;;;;;;;;;;5050394;28;20507;-63
2021/11/16 13:08:53;;;;;;;21.38;11.02;;;;;;;;;;5051002;28;20100;-64
2021/11/16 13:11:38;;;;;;;24.30;11.95;;;;;;;;;;5050776;28;20440;-64
2021/11/16 13:14:03;;;;;;;23.35;11.77;;;;;;;;;;5046081;28;20049;-64
2021/11/16 13:16:28;;;;;;;24.00;11.13;;;;;;;;;;5049623;28;20537;-64
2021/11/16 13:18:55;;;;;;;24.23;11.95;;;;;;;;;;5045496;28;20045;-64
2021/11/16 13:21:22;;;;;;;26.20;12.02;;;;;;;;;;5050049;28;20025;-62
2021/11/16 13:24:08;;;;;;;26.67;11.50;;;;;;;;;;5048896;28;20050;-64
2021/11/16 13:26:51;;;;;;;23.88;11.77;;;;;;;;;;5049623;28;20031;-63
2021/11/16 13:29:30;;;;;;;25.05;11.93;;;;;;;;;;5048429;28;20056;-63
2021/11/16 13:31:57;;;;;;;24.27;11.50;;;;;;;;;;5056495;28;20033;-64
2021/11/16 13:34:30;;;;;;;23.63;11.45;;;;;;;;;;5050422;28;20020;-64
2021/11/16 13:36:57;;;;;;;23.95;11.30;;;;;;;;;;5041313;28;20033;-63
2021/11/16 13:39:35;;;;;;;24.50;12.00;;;;;;;;;;5045732;28;20464;-63
2021/11/16 13:42:09;;;;;;;24.60;11.52;;;;;;;;;;5049974;28;20043;-64
2021/11/16 13:44:41;;;;;;;20.60;10.77;;;;;;;;;;5047813;28;20199;-64
2021/11/16 13:47:34;;;;;;;25.48;11.82;;;;;;;;;;5050136;28;20024;-62
2021/11/16 13:50:05;;;;;;;20.48;10.45;;;;;;;;;;5049532;28;20051;-64
2021/11/16 13:52:35;;;;;;;22.13;10.80;;;;;;;;;;5049581;28;20020;-63
2021/11/16 13:55:02;;;;;;;21.60;10.57;;;;;;;;;;5048214;28;20021;-63
2021/11/16 13:57:30;;;;;;;25.33;11.90;;;;;;;;;;5049342;28;20073;-63
2021/11/16 14:00:00;;;;;;;24.42;11.32;;;;;;;;;;5052577;28;20049;-63
2021/11/16 14:02:25;;;;;;;22.42;11.27;;;;;;;;;;5050582;28;20021;-63
2021/11/16 14:04:55;;;;;;;23.52;11.25;;;;;;;;;;5050524;28;20029;-64
2021/11/16 14:07:21;;;;;;;24.52;11.10;;;;;;;;;;5048279;28;20100;-64
2021/11/16 14:10:00;;;;;;;22.73;11.05;;;;;;;;;;5045471;28;20813;-64
2021/11/16 14:12:26;;;;;;;24.70;11.15;;;;;;;;;;5044548;28;20418;-64
2021/11/16 14:14:56;;;;;;;21.48;10.20;;;;;;;;;;5049857;28;20048;-63
2021/11/16 14:17:22;;;;;;;24.02;11.50;;;;;;;;;;5046366;28;20120;-63
2021/11/16 14:19:50;;;;;;;23.40;10.93;;;;;;;;;;5049467;28;20116;-63
2021/11/16 14:22:30;;;;;;;24.85;10.77;;;;;;;;;;5049841;28;20021;-63
2021/11/16 14:24:56;;;;;;;23.15;11.13;;;;;;;;;;5044458;28;20024;-62
2021/11/16 14:27:22;;;;;;;24.05;11.32;;;;;;;;;;5048209;28;20025;-64
2021/11/16 14:29:48;;;;;;;24.85;11.60;;;;;;;;;;5050095;28;20594;-64
2021/11/16 14:32:23;;;;;;;23.50;11.10;;;;;;;;;;5048224;28;20128;-63
2021/11/16 14:34:49;;;;;;;21.73;11.52;;;;;;;;;;5047763;28;20028;-64